Time;durP1;ratioP1;P1;durP2;ratioP2;P2;SDS_P1;SDS_P2;PMS_P1;PMS_P2;Temp;Humidity;BMP_temperature;BMP_pressure;BME280_temperature;BME280_humidity;BME280_pressure;Samples;Min_cycle;Max_cycle;Signal;HPM_P1;HPM_P2
2022/10/31 00:04:37;;;;;;;;;;;;;;;11.74;84.44922;102098.4;;;;-74
2022/10/31 00:09:37;;;;;;;;;;;;;;;11.71;84.66602;102099.9;;;;-74
2022/10/31 00:14:37;;;;;;;;;;;;;;;11.69;84.50684;102099.4;;;;-74
2022/10/31 00:19:37;;;;;;;;;;;;;;;11.63;84.73828;102100.4;;;;-74
2022/10/31 00:24:37;;;;;;;;;;;;;;;11.62;84.56152;102103.5;;;;-74
2022/10/31 00:26:03;;;;;;;4.5;1.7;;;;;;;;;;;;;-74
2022/10/31 00:29:37;;;;;;;;;;;;;;;11.59;84.91992;102104.8;;;;-74
2022/10/31 00:34:37;;;;;;;;;;;;;;;11.56;84.70215;102109.1;;;;-74
2022/10/31 00:39:37;;;;;;;;;;;;;;;11.57;84.59473;102112.7;;;;-74
2022/10/31 00:44:37;;;;;;;;;;;;;;;11.51;84.72656;102111.3;;;;-73
2022/10/31 00:49:37;;;;;;;;;;;;;;;11.47;84.96387;102108.2;;;;-74
2022/10/31 00:54:37;;;;;;;;;;;;;;;11.46;84.7627;102109.1;;;;-74
2022/10/31 00:56:01;;;;;;;4.7;2.3;;;;;;;;;;;;;-73
2022/10/31 00:59:37;;;;;;;;;;;;;;;11.47;84.76367;102112.1;;;;-76
2022/10/31 01:04:37;;;;;;;;;;;;;;;11.43;84.63379;102113.2;;;;-75
2022/10/31 01:09:37;;;;;;;;;;;;;;;11.42;84.56543;102115.8;;;;-74
2022/10/31 01:14:37;;;;;;;;;;;;;;;11.38;84.64648;102117;;;;-74
2022/10/31 01:19:37;;;;;;;;;;;;;;;11.32;84.73535;102123.6;;;;-74
2022/10/31 01:24:37;;;;;;;;;;;;;;;11.29;84.5293;102121.3;;;;-74
2022/10/31 01:26:16;;;;;;;4.8;2;;;;;;;;;;;;;-74
2022/10/31 01:29:40;;;;;;;;;;;;;;;11.23;84.65039;102117.1;;;;-74
2022/10/31 01:34:37;;;;;;;;;;;;;;;11.21;84.19336;102114.8;;;;-75
2022/10/31 01:39:37;;;;;;;;;;;;;;;11.19;84.21289;102108.6;;;;-74
2022/10/31 01:44:57;;;;;;;;;;;;;;;11.12;84.375;102099.4;;;;-74
2022/10/31 01:49:40;;;;;;;;;;;;;;;11.14;84.56836;102096.8;;;;-74
2022/10/31 01:54:39;;;;;;;;;;;;;;;11.09;84.21484;102104.1;;;;-75
2022/10/31 01:56:04;;;;;;;4;1.7;;;;;;;;;;;;;-74
2022/10/31 01:59:40;;;;;;;;;;;;;;;11.07;84.25488;102104.2;;;;-75
2022/10/31 02:04:38;;;;;;;;;;;;;;;11.04;84.11719;102095.5;;;;-74
2022/10/31 02:09:38;;;;;;;;;;;;;;;10.98;84.33691;102093.7;;;;-73
2022/10/31 02:14:38;;;;;;;;;;;;;;;10.94;84.39453;102090.3;;;;-74
2022/10/31 02:19:41;;;;;;;;;;;;;;;10.91;84.73242;102092.4;;;;-75
2022/10/31 02:24:47;;;;;;;;;;;;;;;10.85;84.0918;102094.1;;;;-74
2022/10/31 02:26:18;;;;;;;4.4;1.8;;;;;;;;;;;;;-74
2022/10/31 02:29:54;;;;;;;;;;;;;;;10.89;84.1875;102102.2;;;;-74
2022/10/31 02:34:40;;;;;;;;;;;;;;;10.88;83.96387;102101.4;;;;-74
2022/10/31 02:39:41;;;;;;;;;;;;;;;10.79;83.75684;102103.3;;;;-75
2022/10/31 02:44:40;;;;;;;;;;;;;;;10.78;84.22168;102097;;;;-75
2022/10/31 02:49:41;;;;;;;;;;;;;;;10.74;84.21289;102092.8;;;;-74
2022/10/31 02:54:38;;;;;;;;;;;;;;;10.71;84.21875;102092.4;;;;-73
2022/10/31 02:56:08;;;;;;;3.6;2.2;;;;;;;;;;;;;-74
2022/10/31 02:59:40;;;;;;;;;;;;;;;10.66;83.98828;102095.9;;;;-75
2022/10/31 03:04:51;;;;;;;;;;;;;;;10.63;83.99219;102096.9;;;;-74
2022/10/31 03:09:44;;;;;;;;;;;;;;;10.59;84.28418;102103.3;;;;-75
2022/10/31 03:14:42;;;;;;;;;;;;;;;10.57;83.91602;102105.8;;;;-74
2022/10/31 03:19:42;;;;;;;;;;;;;;;10.54;84.04297;102097.3;;;;-74
2022/10/31 03:24:39;;;;;;;;;;;;;;;10.49;84.07715;102098.2;;;;-75
2022/10/31 03:26:09;;;;;;;3.9;2.1;;;;;;;;;;;;;-75
2022/10/31 03:29:39;;;;;;;;;;;;;;;10.47;83.9834;102100.6;;;;-73
2022/10/31 03:34:39;;;;;;;;;;;;;;;10.43;84.50879;102100.5;;;;-74
2022/10/31 03:39:38;;;;;;;;;;;;;;;10.41;84.33789;102097.6;;;;-74
2022/10/31 03:44:38;;;;;;;;;;;;;;;10.36;84.18555;102104.8;;;;-74
2022/10/31 03:49:38;;;;;;;;;;;;;;;10.31;84.4082;102105.6;;;;-74
2022/10/31 03:54:40;;;;;;;;;;;;;;;10.29;84.32715;102106.7;;;;-74
2022/10/31 03:56:11;;;;;;;4.4;2.8;;;;;;;;;;;;;-75
2022/10/31 03:59:40;;;;;;;;;;;;;;;10.28;84.44531;102104.9;;;;-74
2022/10/31 04:04:41;;;;;;;;;;;;;;;10.27;84.72852;102104.2;;;;-73
2022/10/31 04:09:39;;;;;;;;;;;;;;;10.27;84.50098;102103.3;;;;-74
2022/10/31 04:14:40;;;;;;;;;;;;;;;10.25;84.51758;102107.1;;;;-74
2022/10/31 04:19:37;;;;;;;;;;;;;;;10.23;84.66797;102104.2;;;;-74
2022/10/31 04:24:37;;;;;;;;;;;;;;;10.21;84.55273;102105.1;;;;-73
2022/10/31 04:26:08;;;;;;;6;3.3;;;;;;;;;;;;;-73
2022/10/31 04:29:37;;;;;;;;;;;;;;;10.2;84.61719;102111.5;;;;-74
2022/10/31 04:34:37;;;;;;;;;;;;;;;10.19;84.42773;102118;;;;-74
2022/10/31 04:39:37;;;;;;;;;;;;;;;10.2;85.03711;102119.3;;;;-75
2022/10/31 04:44:37;;;;;;;;;;;;;;;10.19;84.92285;102118.1;;;;-75
2022/10/31 04:49:37;;;;;;;;;;;;;;;10.17;85.17285;102121.3;;;;-74
2022/10/31 04:54:37;;;;;;;;;;;;;;;10.12;84.8457;102123.3;;;;-75
2022/10/31 04:56:10;;;;;;;7.4;4.1;;;;;;;;;;;;;-74
2022/10/31 04:59:37;;;;;;;;;;;;;;;10.09;84.78418;102119.5;;;;-73
2022/10/31 05:04:37;;;;;;;;;;;;;;;10.14;84.83887;102119;;;;-74
2022/10/31 05:09:37;;;;;;;;;;;;;;;10.11;84.78906;102110.9;;;;-74
2022/10/31 05:14:37;;;;;;;;;;;;;;;10.1;85.28418;102101.9;;;;-74
2022/10/31 05:19:37;;;;;;;;;;;;;;;10.1;84.56445;102088.1;;;;-74
2022/10/31 05:24:37;;;;;;;;;;;;;;;10.08;84.53906;102088.8;;;;-73
2022/10/31 05:26:10;;;;;;;8.9;5.2;;;;;;;;;;;;;-74
2022/10/31 05:29:37;;;;;;;;;;;;;;;10.06;85.00977;102084.1;;;;-74
2022/10/31 05:34:37;;;;;;;;;;;;;;;10.08;85.13477;102088.9;;;;-74
2022/10/31 05:39:37;;;;;;;;;;;;;;;10.06;84.84473;102082.9;;;;-73
2022/10/31 05:44:37;;;;;;;;;;;;;;;10.03;84.90527;102080.5;;;;-76
2022/10/31 05:49:37;;;;;;;;;;;;;;;10.03;84.97168;102086.2;;;;-74
2022/10/31 05:54:37;;;;;;;;;;;;;;;10.01;84.71289;102080.2;;;;-74
2022/10/31 05:56:11;;;;;;;12.2;7;;;;;;;;;;;;;-73
2022/10/31 05:59:39;;;;;;;;;;;;;;;10.02;85.42285;102077.3;;;;-75
2022/10/31 06:04:37;;;;;;;;;;;;;;;9.99;85.1416;102069.8;;;;-75
2022/10/31 06:09:37;;;;;;;;;;;;;;;9.99;85.60254;102070.7;;;;-75
2022/10/31 06:14:37;;;;;;;;;;;;;;;9.98;85.47949;102063.6;;;;-74
2022/10/31 06:19:37;;;;;;;;;;;;;;;9.95;85.2002;102063.1;;;;-75
2022/10/31 06:24:37;;;;;;;;;;;;;;;9.96;85.33301;102066.9;;;;-74
2022/10/31 06:26:12;;;;;;;12.8;7.3;;;;;;;;;;;;;-75
2022/10/31 06:29:37;;;;;;;;;;;;;;;10.01;85.39648;102068.7;;;;-74
2022/10/31 06:34:37;;;;;;;;;;;;;;;9.95;85.67285;102063.1;;;;-74
2022/10/31 06:39:37;;;;;;;;;;;;;;;9.98;85.96484;102066.8;;;;-74
2022/10/31 06:44:37;;;;;;;;;;;;;;;9.96;85.97266;102067.4;;;;-74
2022/10/31 06:49:37;;;;;;;;;;;;;;;10;85.82715;102070.9;;;;-76
2022/10/31 06:54:39;;;;;;;;;;;;;;;9.97;85.44336;102073.9;;;;-74
2022/10/31 06:56:15;;;;;;;13.8;7.9;;;;;;;;;;;;;-74
2022/10/31 06:59:37;;;;;;;;;;;;;;;9.94;85.12891;102074.6;;;;-74
2022/10/31 07:04:37;;;;;;;;;;;;;;;9.96;85.50977;102075.7;;;;-75
2022/10/31 07:09:37;;;;;;;;;;;;;;;9.93;85.2168;102087.8;;;;-74
2022/10/31 07:14:37;;;;;;;;;;;;;;;9.96;85.33301;102088.5;;;;-78
2022/10/31 07:19:37;;;;;;;;;;;;;;;9.95;85.5625;102089.4;;;;-75
2022/10/31 07:24:37;;;;;;;;;;;;;;;10;85.42871;102093;;;;-76
2022/10/31 07:26:14;;;;;;;13.8;7.8;;;;;;;;;;;;;-75
2022/10/31 07:29:37;;;;;;;;;;;;;;;10;85.0332;102093.1;;;;-75
2022/10/31 07:34:38;;;;;;;;;;;;;;;10.04;85.3252;102095.2;;;;-71
2022/10/31 07:39:37;;;;;;;;;;;;;;;10.12;85.34082;102098.4;;;;-72
2022/10/31 07:44:37;;;;;;;;;;;;;;;10.17;85.00977;102108.2;;;;-75
2022/10/31 07:49:37;;;;;;;;;;;;;;;10.24;85.66406;102113.8;;;;-75
2022/10/31 07:54:37;;;;;;;;;;;;;;;10.32;85.14941;102115.5;;;;-74
2022/10/31 07:56:15;;;;;;;15.2;8.5;;;;;;;;;;;;;-74
2022/10/31 07:59:37;;;;;;;;;;;;;;;10.45;85.64941;102111.2;;;;-74
2022/10/31 08:04:42;;;;;;;;;;;;;;;10.57;85.55078;102114.6;;;;-75
2022/10/31 08:09:37;;;;;;;;;;;;;;;10.68;85.55078;102118.5;;;;-75
2022/10/31 08:14:37;;;;;;;;;;;;;;;10.8;85.30957;102114.4;;;;-75
2022/10/31 08:19:37;;;;;;;;;;;;;;;11.01;84.53223;102107;;;;-74
2022/10/31 08:24:37;;;;;;;;;;;;;;;11.27;84.94824;102097.6;;;;-75
2022/10/31 08:26:16;;;;;;;18.4;9.5;;;;;;;;;;;;;-74
2022/10/31 08:29:37;;;;;;;;;;;;;;;11.5;84.63672;102097.7;;;;-73
2022/10/31 08:34:38;;;;;;;;;;;;;;;11.72;83.53711;102101.7;;;;-74
2022/10/31 08:39:37;;;;;;;;;;;;;;;11.91;82.66406;102095.9;;;;-74
2022/10/31 08:44:37;;;;;;;;;;;;;;;12.16;83.34277;102101.9;;;;-75
2022/10/31 08:49:37;;;;;;;;;;;;;;;12.44;83.19629;102095.8;;;;-74
2022/10/31 08:54:37;;;;;;;;;;;;;;;12.6;83.23926;102091.1;;;;-75
2022/10/31 08:56:16;;;;;;;18.8;10.2;;;;;;;;;;;;;-74
2022/10/31 08:59:37;;;;;;;;;;;;;;;12.79;82.48633;102084.8;;;;-74
2022/10/31 09:04:37;;;;;;;;;;;;;;;12.94;82.03516;102086;;;;-73
2022/10/31 09:09:40;;;;;;;;;;;;;;;13.07;81.77148;102079.6;;;;-74
2022/10/31 09:14:37;;;;;;;;;;;;;;;13.06;82.08105;102068;;;;-75
2022/10/31 09:19:37;;;;;;;;;;;;;;;13.15;82.14063;102065.1;;;;-74
2022/10/31 09:24:37;;;;;;;;;;;;;;;13.1;82.14355;102062.1;;;;-75
2022/10/31 09:26:17;;;;;;;17.7;9.6;;;;;;;;;;;;;-75
2022/10/31 09:29:37;;;;;;;;;;;;;;;13.15;82.76367;102057.7;;;;-74
2022/10/31 09:34:37;;;;;;;;;;;;;;;13.22;82.65527;102059.8;;;;-75
2022/10/31 09:39:37;;;;;;;;;;;;;;;13.29;83.46973;102056.7;;;;-74
2022/10/31 09:44:44;;;;;;;;;;;;;;;13.31;83.40625;102055.3;;;;-74
2022/10/31 09:49:51;;;;;;;;;;;;;;;13.52;83.2793;102044.2;;;;-74
2022/10/31 09:54:39;;;;;;;;;;;;;;;13.71;82.83691;102032;;;;-75
2022/10/31 09:56:20;;;;;;;15.8;9.2;;;;;;;;;;;;;-74
2022/10/31 09:59:38;;;;;;;;;;;;;;;13.92;81.79492;102026.3;;;;-76
2022/10/31 10:04:47;;;;;;;;;;;;;;;13.98;81.80469;102032.3;;;;-74
2022/10/31 10:09:37;;;;;;;;;;;;;;;14.04;82.05078;102028.4;;;;-74
2022/10/31 10:14:44;;;;;;;;;;;;;;;14.16;81.2832;102025.5;;;;-71
2022/10/31 10:19:48;;;;;;;;;;;;;;;14.19;81.00879;102017.1;;;;-71
2022/10/31 10:24:45;;;;;;;;;;;;;;;14.14;81.8916;102012.2;;;;-74
2022/10/31 10:26:21;;;;;;;19.6;8.6;;;;;;;;;;;;;-75
2022/10/31 10:29:41;;;;;;;;;;;;;;;14.12;81.67578;102002.9;;;;-74
2022/10/31 10:34:42;;;;;;;;;;;;;;;14.07;82.47949;101994.9;;;;-73
2022/10/31 10:39:40;;;;;;;;;;;;;;;14.18;82.03125;101995.4;;;;-76
2022/10/31 10:49:42;;;;;;;;;;;;;;;14.4;81.44727;101983;;;;-75
2022/10/31 10:54:51;;;;;;;;;;;;;;;14.56;81.45508;101968.8;;;;-75
2022/10/31 10:56:30;;;;;;;16;8.9;;;;;;;;;;;;;-74
2022/10/31 10:59:37;;;;;;;;;;;;;;;14.84;80.9375;101956;;;;-74
2022/10/31 11:04:39;;;;;;;;;;;;;;;15.05;80.48438;101955.8;;;;-74
2022/10/31 11:09:38;;;;;;;;;;;;;;;15.19;79.69434;101936.1;;;;-74
2022/10/31 11:14:40;;;;;;;;;;;;;;;15.25;79.44727;101929.8;;;;-74
2022/10/31 11:19:37;;;;;;;;;;;;;;;15.37;79.83691;101920.2;;;;-75
2022/10/31 11:24:41;;;;;;;;;;;;;;;15.74;78.68359;101907.7;;;;-74
2022/10/31 11:26:24;;;;;;;17;8.2;;;;;;;;;;;;;-73
2022/10/31 11:29:37;;;;;;;;;;;;;;;16.11;77.3584;101902.4;;;;-74
2022/10/31 11:34:40;;;;;;;;;;;;;;;16.13;77.15137;101897.7;;;;-74
2022/10/31 11:39:44;;;;;;;;;;;;;;;16.07;77.20605;101903.3;;;;-74
2022/10/31 11:44:37;;;;;;;;;;;;;;;16.06;76.87891;101899;;;;-74
2022/10/31 11:49:39;;;;;;;;;;;;;;;16.03;77.0332;101888.8;;;;-75
2022/10/31 11:54:42;;;;;;;;;;;;;;;15.97;76.78516;101888.3;;;;-74
2022/10/31 11:56:25;;;;;;;12.7;6.2;;;;;;;;;;;;;-74
2022/10/31 11:59:37;;;;;;;;;;;;;;;15.91;77.05566;101884.8;;;;-73
2022/10/31 12:04:41;;;;;;;;;;;;;;;15.85;77.14551;101877.9;;;;-73
2022/10/31 12:09:38;;;;;;;;;;;;;;;15.9;77.32129;101868.7;;;;-74
2022/10/31 12:14:41;;;;;;;;;;;;;;;15.97;77.60156;101850;;;;-73
2022/10/31 12:19:40;;;;;;;;;;;;;;;16.06;77.79883;101840.4;;;;-74
2022/10/31 12:24:48;;;;;;;;;;;;;;;16.11;77.71875;101828.3;;;;-74
2022/10/31 12:26:31;;;;;;;11.9;6.6;;;;;;;;;;;;;-73
2022/10/31 12:29:41;;;;;;;;;;;;;;;16.21;77.28711;101817.5;;;;-73
2022/10/31 12:35:00;;;;;;;;;;;;;;;16.28;77.2666;101820;;;;-75
2022/10/31 12:39:42;;;;;;;;;;;;;;;16.33;76.70215;101821.7;;;;-75
2022/10/31 12:44:48;;;;;;;;;;;;;;;16.32;76.75684;101817.3;;;;-75
2022/10/31 12:49:55;;;;;;;;;;;;;;;16.35;76.81738;101800;;;;-74
2022/10/31 12:54:48;;;;;;;;;;;;;;;16.47;76.84766;101783.1;;;;-73
2022/10/31 12:56:36;;;;;;;13.5;7.5;;;;;;;;;;;;;-74
2022/10/31 12:59:39;;;;;;;;;;;;;;;16.57;76.56152;101766.2;;;;-73
2022/10/31 13:04:46;;;;;;;;;;;;;;;16.62;76.3252;101759;;;;-74
2022/10/31 13:09:40;;;;;;;;;;;;;;;16.61;76.33496;101744.3;;;;-74
2022/10/31 13:14:40;;;;;;;;;;;;;;;16.64;76.34961;101722.9;;;;-73
2022/10/31 13:19:42;;;;;;;;;;;;;;;16.67;76.73828;101709.7;;;;-73
2022/10/31 13:24:40;;;;;;;;;;;;;;;16.75;76.51563;101700.6;;;;-73
2022/10/31 13:26:37;;;;;;;16.8;8.1;;;;;;;;;;;;;-71
2022/10/31 13:29:40;;;;;;;;;;;;;;;16.87;76.08887;101687.5;;;;-71
2022/10/31 13:34:38;;;;;;;;;;;;;;;16.97;75.99316;101680;;;;-71
2022/10/31 13:39:45;;;;;;;;;;;;;;;16.99;75.70215;101672.7;;;;-74
2022/10/31 13:44:39;;;;;;;;;;;;;;;17.03;76.88867;101666.2;;;;-74
2022/10/31 13:49:46;;;;;;;;;;;;;;;17.02;75.62988;101663;;;;-74
2022/10/31 13:54:40;;;;;;;;;;;;;;;16.98;75.57813;101650.2;;;;-75
2022/10/31 13:56:35;;;;;;;17.8;9.4;;;;;;;;;;;;;-74
2022/10/31 13:59:39;;;;;;;;;;;;;;;16.94;75.85156;101637.9;;;;-74
2022/10/31 14:04:41;;;;;;;;;;;;;;;16.89;75.94531;101631;;;;-75
2022/10/31 14:09:38;;;;;;;;;;;;;;;16.87;76.01758;101622.5;;;;-73
2022/10/31 14:14:51;;;;;;;;;;;;;;;16.83;76.2041;101612.1;;;;-74
2022/10/31 14:19:37;;;;;;;;;;;;;;;16.78;76.39746;101608.2;;;;-74
2022/10/31 14:24:41;;;;;;;;;;;;;;;16.69;77.03418;101596.3;;;;-75
2022/10/31 14:26:41;;;;;;;18.8;9.3;;;;;;;;;;;;;-73
2022/10/31 14:29:37;;;;;;;;;;;;;;;16.64;77.0459;101590.9;;;;-74
2022/10/31 14:34:38;;;;;;;;;;;;;;;16.59;77.43066;101586.3;;;;-74
2022/10/31 14:39:41;;;;;;;;;;;;;;;16.53;77.80273;101581.2;;;;-74
2022/10/31 14:44:55;;;;;;;;;;;;;;;16.48;77.72754;101572.5;;;;-74
2022/10/31 14:49:42;;;;;;;;;;;;;;;16.43;78.07715;101569.8;;;;-74
2022/10/31 14:54:39;;;;;;;;;;;;;;;16.37;78.14453;101553.9;;;;-73
2022/10/31 14:56:39;;;;;;;15.5;8.1;;;;;;;;;;;;;-74
2022/10/31 14:59:40;;;;;;;;;;;;;;;16.32;78.2041;101538.8;;;;-75
2022/10/31 15:04:38;;;;;;;;;;;;;;;16.27;78.93457;101524.3;;;;-75
2022/10/31 15:09:40;;;;;;;;;;;;;;;16.21;79.03711;101512.5;;;;-74
2022/10/31 15:14:37;;;;;;;;;;;;;;;16.13;79.07813;101503;;;;-73
2022/10/31 15:19:38;;;;;;;;;;;;;;;16.07;79.78418;101497;;;;-74
2022/10/31 15:24:38;;;;;;;;;;;;;;;15.99;80.08398;101480.1;;;;-74
2022/10/31 15:26:43;;;;;;;18.1;8.4;;;;;;;;;;;;;-73
2022/10/31 15:29:37;;;;;;;;;;;;;;;15.93;80.28613;101470.1;;;;-73
2022/10/31 15:34:40;;;;;;;;;;;;;;;15.86;80.47461;101466;;;;-74
2022/10/31 15:39:37;;;;;;;;;;;;;;;15.79;80.96582;101462.4;;;;-75
2022/10/31 15:44:39;;;;;;;;;;;;;;;15.71;80.73926;101453.7;;;;-74
2022/10/31 15:49:42;;;;;;;;;;;;;;;15.65;80.92969;101445;;;;-75
2022/10/31 15:54:37;;;;;;;;;;;;;;;15.58;81.12988;101439.4;;;;-73
2022/10/31 15:56:42;;;;;;;18.2;9.1;;;;;;;;;;;;;-75
2022/10/31 15:59:37;;;;;;;;;;;;;;;15.52;81.21973;101436.5;;;;-74
2022/10/31 16:04:37;;;;;;;;;;;;;;;15.45;81.20801;101433.3;;;;-75
2022/10/31 16:09:37;;;;;;;;;;;;;;;15.4;81.4209;101429.2;;;;-72
2022/10/31 16:14:42;;;;;;;;;;;;;;;15.34;81.09668;101421.6;;;;-73
2022/10/31 16:19:39;;;;;;;;;;;;;;;15.3;81;101420.7;;;;-73
2022/10/31 16:24:38;;;;;;;;;;;;;;;15.24;81.0332;101410.9;;;;-73
2022/10/31 16:26:44;;;;;;;19.4;9.2;;;;;;;;;;;;;-74
2022/10/31 16:29:42;;;;;;;;;;;;;;;15.18;81.19141;101399.6;;;;-73
2022/10/31 16:34:37;;;;;;;;;;;;;;;15.13;81.1123;101380.1;;;;-75
2022/10/31 16:39:37;;;;;;;;;;;;;;;15.08;81.11719;101399.1;;;;-73
2022/10/31 16:44:37;;;;;;;;;;;;;;;15.04;81.2207;101397.9;;;;-75
2022/10/31 16:49:37;;;;;;;;;;;;;;;14.99;81.33496;101385.2;;;;-73
2022/10/31 16:54:38;;;;;;;;;;;;;;;14.93;81.27832;101370.9;;;;-73
2022/10/31 16:56:47;;;;;;;21;9;;;;;;;;;;;;;-72
2022/10/31 16:59:38;;;;;;;;;;;;;;;14.88;81.4043;101360.8;;;;-74
2022/10/31 17:04:37;;;;;;;;;;;;;;;14.84;81.5293;101360.1;;;;-74
2022/10/31 17:09:37;;;;;;;;;;;;;;;14.79;81.71094;101358.4;;;;-73
2022/10/31 17:14:37;;;;;;;;;;;;;;;14.75;81.80371;101336.7;;;;-76
2022/10/31 17:19:37;;;;;;;;;;;;;;;14.7;81.86133;101336.1;;;;-75
2022/10/31 17:24:37;;;;;;;;;;;;;;;14.67;82.03418;101327.9;;;;-74
2022/10/31 17:26:48;;;;;;;20;9.6;;;;;;;;;;;;;-74
2022/10/31 17:29:37;;;;;;;;;;;;;;;14.62;82.10352;101312.8;;;;-74
2022/10/31 17:34:38;;;;;;;;;;;;;;;14.59;82.12109;101312.1;;;;-74
2022/10/31 17:39:37;;;;;;;;;;;;;;;14.55;82.33496;101317.7;;;;-74
2022/10/31 17:44:37;;;;;;;;;;;;;;;14.51;82.57422;101310.5;;;;-73
2022/10/31 17:49:37;;;;;;;;;;;;;;;14.46;82.57715;101292.5;;;;-74
2022/10/31 17:54:37;;;;;;;;;;;;;;;14.44;82.73926;101285.7;;;;-74
2022/10/31 17:56:56;;;;;;;21.3;9.9;;;;;;;;;;;;;-74
2022/10/31 17:59:37;;;;;;;;;;;;;;;14.4;82.80859;101278.4;;;;-76
2022/10/31 18:04:37;;;;;;;;;;;;;;;14.36;82.93555;101269.1;;;;-76
2022/10/31 18:09:37;;;;;;;;;;;;;;;14.31;82.88281;101249;;;;-78
2022/10/31 18:14:37;;;;;;;;;;;;;;;14.26;83.21777;101235.5;;;;-75
2022/10/31 18:19:37;;;;;;;;;;;;;;;14.2;83.22754;101222.7;;;;-76
2022/10/31 18:24:37;;;;;;;;;;;;;;;14.14;83.48535;101224.6;;;;-76
2022/10/31 18:26:51;;;;;;;19.6;9.3;;;;;;;;;;;;;-77
2022/10/31 18:29:39;;;;;;;;;;;;;;;14.08;83.5625;101231.2;;;;-75
2022/10/31 18:34:37;;;;;;;;;;;;;;;14.03;83.50879;101229.4;;;;-75
2022/10/31 18:39:37;;;;;;;;;;;;;;;13.96;83.65137;101221.7;;;;-75
2022/10/31 18:44:37;;;;;;;;;;;;;;;13.91;83.59863;101214.3;;;;-74
2022/10/31 18:49:37;;;;;;;;;;;;;;;13.88;82.99023;101207.6;;;;-74
2022/10/31 18:54:37;;;;;;;;;;;;;;;13.84;83.2168;101200;;;;-75
2022/10/31 18:56:54;;;;;;;22.2;9.6;;;;;;;;;;;;;-76
2022/10/31 18:59:37;;;;;;;;;;;;;;;13.77;83.08203;101187.8;;;;-76
2022/10/31 19:04:37;;;;;;;;;;;;;;;13.7;82.91309;101179.3;;;;-74
2022/10/31 19:09:37;;;;;;;;;;;;;;;13.65;82.96875;101175.8;;;;-75
2022/10/31 19:14:37;;;;;;;;;;;;;;;13.59;82.87012;101165.2;;;;-74
2022/10/31 19:19:38;;;;;;;;;;;;;;;13.55;83.12793;101162;;;;-75
2022/10/31 19:24:37;;;;;;;;;;;;;;;13.51;83.34375;101154.1;;;;-74
2022/10/31 19:26:55;;;;;;;20.5;9.9;;;;;;;;;;;;;-75
2022/10/31 19:29:38;;;;;;;;;;;;;;;13.46;83.30078;101145.9;;;;-74
2022/10/31 19:34:37;;;;;;;;;;;;;;;13.41;83.00293;101140.8;;;;-75
2022/10/31 19:39:37;;;;;;;;;;;;;;;13.38;83.74121;101137.8;;;;-71
2022/10/31 19:44:37;;;;;;;;;;;;;;;13.37;85.27637;101131;;;;-72
2022/10/31 19:49:37;;;;;;;;;;;;;;;13.36;84.97266;101123.9;;;;-75
2022/10/31 19:54:37;;;;;;;;;;;;;;;13.35;85.27051;101113.8;;;;-75
2022/10/31 19:56:56;;;;;;;24.6;11;;;;;;;;;;;;;-75
2022/10/31 19:59:37;;;;;;;;;;;;;;;13.35;85.53711;101110.2;;;;-75
2022/10/31 20:04:37;;;;;;;;;;;;;;;13.35;85.91602;101112.8;;;;-75
2022/10/31 20:09:37;;;;;;;;;;;;;;;13.33;85.71191;101106;;;;-75
2022/10/31 20:14:37;;;;;;;;;;;;;;;13.31;85.55273;101103.8;;;;-75
2022/10/31 20:19:41;;;;;;;;;;;;;;;13.28;85.92578;101101;;;;-74
2022/10/31 20:24:38;;;;;;;;;;;;;;;13.26;85.97559;101096.5;;;;-76
2022/10/31 20:26:57;;;;;;;27.7;11.4;;;;;;;;;;;;;-76
2022/10/31 20:29:37;;;;;;;;;;;;;;;13.2;84.80957;101091.2;;;;-75
2022/10/31 20:34:37;;;;;;;;;;;;;;;13.15;84.96484;101082.8;;;;-76
2022/10/31 20:39:37;;;;;;;;;;;;;;;13.11;85.19141;101079.7;;;;-74
2022/10/31 20:44:37;;;;;;;;;;;;;;;13.09;84.99902;101073.3;;;;-75
2022/10/31 20:49:37;;;;;;;;;;;;;;;13.04;84.85547;101059.6;;;;-76
2022/10/31 20:54:37;;;;;;;;;;;;;;;13.03;84.97559;101049.3;;;;-75
2022/10/31 20:56:58;;;;;;;22.8;10.9;;;;;;;;;;;;;-74
2022/10/31 20:59:37;;;;;;;;;;;;;;;13.03;85.70898;101043.4;;;;-74
2022/10/31 21:04:37;;;;;;;;;;;;;;;13;85.31543;101037.4;;;;-76
2022/10/31 21:09:37;;;;;;;;;;;;;;;13;85.82617;101040.3;;;;-75
2022/10/31 21:14:37;;;;;;;;;;;;;;;13.01;85.9834;101039.9;;;;-74
2022/10/31 21:19:37;;;;;;;;;;;;;;;13;85.84863;101028.9;;;;-75
2022/10/31 21:24:37;;;;;;;;;;;;;;;13.01;85.86133;101020.3;;;;-75
2022/10/31 21:26:59;;;;;;;19.1;8.8;;;;;;;;;;;;;-75
2022/10/31 21:29:37;;;;;;;;;;;;;;;13.01;85.99414;101012.9;;;;-76
2022/10/31 21:34:37;;;;;;;;;;;;;;;13;85.79297;101003.5;;;;-74
2022/10/31 21:39:37;;;;;;;;;;;;;;;13.01;85.87207;101001.5;;;;-76
2022/10/31 21:44:40;;;;;;;;;;;;;;;13.01;85.77246;100994.4;;;;-76
2022/10/31 21:49:37;;;;;;;;;;;;;;;13;85.64844;100982.3;;;;-74
2022/10/31 21:54:37;;;;;;;;;;;;;;;13.01;85.68359;100971.2;;;;-74
2022/10/31 21:57:02;;;;;;;15.8;7;;;;;;;;;;;;;-75
2022/10/31 21:59:37;;;;;;;;;;;;;;;13.01;85.38379;100962.3;;;;-75
2022/10/31 22:04:39;;;;;;;;;;;;;;;13;85.57031;100953.3;;;;-74
2022/10/31 22:09:37;;;;;;;;;;;;;;;13;85.35938;100952.8;;;;-73
2022/10/31 22:14:38;;;;;;;;;;;;;;;13.01;85.38379;100949.7;;;;-75
2022/10/31 22:19:37;;;;;;;;;;;;;;;13.01;85.24023;100952.7;;;;-74
2022/10/31 22:24:37;;;;;;;;;;;;;;;13.05;85.32324;100952.1;;;;-75
2022/10/31 22:27:01;;;;;;;12.4;5.9;;;;;;;;;;;;;-75
2022/10/31 22:29:37;;;;;;;;;;;;;;;13.06;85.28125;100946.6;;;;-75
2022/10/31 22:34:37;;;;;;;;;;;;;;;13.07;85.27344;100933.3;;;;-74
2022/10/31 22:39:37;;;;;;;;;;;;;;;13.1;85.37891;100923;;;;-74
2022/10/31 22:44:37;;;;;;;;;;;;;;;13.09;85.11035;100911.1;;;;-74
2022/10/31 22:49:37;;;;;;;;;;;;;;;13.1;85.0459;100899.3;;;;-74
2022/10/31 22:54:37;;;;;;;;;;;;;;;13.12;85.03809;100892;;;;-74
2022/10/31 22:57:02;;;;;;;14;5.2;;;;;;;;;;;;;-74
2022/10/31 22:59:37;;;;;;;;;;;;;;;13.15;84.91016;100883;;;;-75
2022/10/31 23:04:37;;;;;;;;;;;;;;;13.19;84.87402;100882.7;;;;-74
2022/10/31 23:09:37;;;;;;;;;;;;;;;13.22;84.8457;100873.8;;;;-74
2022/10/31 23:14:37;;;;;;;;;;;;;;;13.24;84.66016;100875.8;;;;-75
2022/10/31 23:19:37;;;;;;;;;;;;;;;13.3;84.62793;100864.1;;;;-75
2022/10/31 23:24:39;;;;;;;;;;;;;;;13.33;84.83398;100855.4;;;;-74
2022/10/31 23:27:14;;;;;;;11;5.1;;;;;;;;;;;;;-74
2022/10/31 23:29:37;;;;;;;;;;;;;;;13.35;84.94824;100856.3;;;;-75
2022/10/31 23:34:37;;;;;;;;;;;;;;;13.37;85.07617;100850.3;;;;-75
2022/10/31 23:39:37;;;;;;;;;;;;;;;13.39;85.5127;100847.8;;;;-76
2022/10/31 23:44:37;;;;;;;;;;;;;;;13.4;85.14746;100836.4;;;;-74
2022/10/31 23:49:37;;;;;;;;;;;;;;;13.42;85.54102;100829.2;;;;-76
2022/10/31 23:54:37;;;;;;;;;;;;;;;13.44;85.59961;100816.9;;;;-75
2022/10/31 23:57:05;;;;;;;11.8;5.1;;;;;;;;;;;;;-76
2022/10/31 23:59:37;;;;;;;;;;;;;;;13.46;85.88281;100802.5;;;;-75
